Time;durP1;ratioP1;P1;durP2;ratioP2;P2;SDS_P1;SDS_P2;PMS_P1;PMS_P2;Temp;Humidity;BMP_temperature;BMP_pressure;BME280_temperature;BME280_humidity;BME280_pressure;Samples;Min_cycle;Max_cycle;Signal;HPM_P1;HPM_P2
2021/07/14 00:00:24;;;;;;;11.93;6.07;;;17.30;99.90;;;;;;4952642;28;20065;-80
2021/07/14 00:02:53;;;;;;;17.13;5.63;;;17.30;99.90;;;;;;4984315;28;20054;-83
2021/07/14 00:05:23;;;;;;;11.73;6.18;;;17.20;99.90;;;;;;4968100;28;20043;-81
2021/07/14 00:07:52;;;;;;;9.90;4.70;;;17.20;99.90;;;;;;4984795;28;20049;-83
2021/07/14 00:10:34;;;;;;;11.05;6.30;;;17.20;99.90;;;;;;4984294;28;20537;-82
2021/07/14 00:13:34;;;;;;;12.60;5.90;;;17.20;99.90;;;;;;4987424;28;20051;-82
2021/07/14 00:24:27;;;;;;;13.68;6.60;;;16.70;99.90;;;;;;4966277;28;20062;-82
2021/07/14 00:26:55;;;;;;;11.23;5.28;;;16.60;99.90;;;;;;4970622;28;20039;-81
2021/07/14 00:29:23;;;;;;;14.27;6.53;;;16.50;99.90;;;;;;4987667;28;20043;-82
2021/07/14 00:31:53;;;;;;;10.63;5.93;;;16.50;99.90;;;;;;4985790;28;20051;-82
2021/07/14 00:34:23;;;;;;;11.52;6.00;;;16.40;99.90;;;;;;4985193;28;20065;-83
2021/07/14 00:36:53;;;;;;;15.73;6.57;;;16.40;99.90;;;;;;4984000;28;20047;-82
2021/07/14 00:39:23;;;;;;;16.77;7.03;;;16.30;99.90;;;;;;4985429;28;20047;-82
2021/07/14 00:41:52;;;;;;;11.55;6.55;;;16.40;99.90;;;;;;4984770;28;20057;-82
2021/07/14 00:44:20;;;;;;;12.50;6.47;;;16.20;99.90;;;;;;4985263;28;20047;-80
2021/07/14 00:46:49;;;;;;;13.27;6.97;;;16.20;99.90;;;;;;4979421;28;20046;-83
2021/07/14 00:49:19;;;;;;;16.05;6.38;;;16.20;99.90;;;;;;4985448;28;20058;-83
2021/07/14 00:51:47;;;;;;;15.30;7.10;;;16.20;99.90;;;;;;4976778;28;20476;-85
2021/07/14 00:54:15;;;;;;;14.43;7.22;;;16.20;99.90;;;;;;4967666;28;20051;-82
2021/07/14 00:56:45;;;;;;;14.15;6.35;;;16.20;99.90;;;;;;4982809;28;20071;-82
2021/07/14 00:59:15;;;;;;;13.45;6.93;;;16.20;99.90;;;;;;4964345;29;20067;-82
2021/07/14 01:01:45;;;;;;;14.02;7.70;;;16.30;99.90;;;;;;4964360;29;20047;-82
2021/07/14 01:04:22;;;;;;;15.35;6.88;;;16.30;99.90;;;;;;4964251;28;20051;-82
2021/07/14 01:06:54;;;;;;;12.90;5.60;;;16.30;99.90;;;;;;4962760;29;20059;-81
2021/07/14 01:09:42;;;;;;;11.05;5.90;;;16.40;99.90;;;;;;4979621;28;20059;-81
2021/07/14 01:12:15;;;;;;;11.25;6.95;;;16.30;99.90;;;;;;4978840;28;20055;-82
2021/07/14 01:15:02;;;;;;;13.57;6.47;;;16.30;99.90;;;;;;4949540;28;20061;-83
2021/07/14 01:17:59;;;;;;;15.80;6.22;;;16.30;99.90;;;;;;4983465;28;20057;-82
2021/07/14 01:20:27;;;;;;;16.67;7.35;;;16.30;99.90;;;;;;4938804;28;20061;-82
2021/07/14 01:23:07;;;;;;;9.10;5.75;;;16.30;99.90;;;;;;4988563;28;20061;-83
2021/07/14 01:26:12;;;;;;;14.30;7.40;;;16.30;99.90;;;;;;4985234;28;20062;-83
2021/07/14 01:28:43;;;;;;;11.75;6.35;;;16.30;99.90;;;;;;4984560;28;20047;-82
2021/07/14 01:31:12;;;;;;;;;;;15.20;99.90;;;;;;4982260;28;20773;-81
2021/07/14 01:33:42;;;;;;;12.30;6.47;;;16.20;99.90;;;;;;5001553;28;19928;-81
2021/07/14 01:36:18;;;;;;;16.83;6.80;;;16.20;99.90;;;;;;4984765;28;20054;-81
2021/07/14 01:38:47;;;;;;;12.07;6.15;;;16.20;99.90;;;;;;4984420;28;20038;-82
2021/07/14 01:41:18;;;;;;;12.82;6.30;;;16.10;99.90;;;;;;4984891;28;20062;-82
2021/07/14 01:43:49;;;;;;;;;;;16.20;99.90;;;;;;4993413;28;20046;-82
2021/07/14 01:46:18;;;;;;;11.85;5.53;;;16.10;99.90;;;;;;4986895;28;19930;-82
2021/07/14 01:48:49;;;;;;;10.35;6.05;;;16.10;99.90;;;;;;5002436;28;20049;-82
2021/07/14 01:51:18;;;;;;;8.02;4.95;;;16.10;99.90;;;;;;4985809;28;20057;-83
2021/07/14 01:53:47;;;;;;;9.43;4.95;;;16.10;99.90;;;;;;4985535;28;20050;-84
2021/07/14 01:56:15;;;;;;;12.38;6.07;;;16.10;99.90;;;;;;4981203;28;20052;-83
2021/07/14 01:58:46;;;;;;;9.55;5.80;;;16.00;99.90;;;;;;4983339;28;20050;-84
2021/07/14 02:01:19;;;;;;;12.07;5.80;;;16.00;99.90;;;;;;4984680;28;20050;-84
2021/07/14 02:04:29;;;;;;;10.30;5.70;;;15.90;99.90;;;;;;5001543;28;20050;-82
2021/07/14 02:06:48;;;;;;;9.38;5.70;;;15.90;99.90;;;;;;5001655;28;20051;-82
2021/07/14 02:09:18;;;;;;;13.23;4.90;;;15.90;99.90;;;;;;5002367;28;20497;-82
2021/07/14 02:11:51;;;;;;;12.98;6.53;;;15.80;99.90;;;;;;4983866;28;20054;-83
2021/07/14 02:14:33;;;;;;;14.73;5.38;;;15.80;99.90;;;;;;5002814;28;20083;-84
2021/07/14 02:17:09;;;;;;;10.57;5.72;;;15.70;99.90;;;;;;4985780;28;20047;-82
2021/07/14 02:19:39;;;;;;;10.05;5.68;;;15.70;99.90;;;;;;4969144;28;20046;-82
2021/07/14 02:22:07;;;;;;;8.00;5.05;;;15.60;99.90;;;;;;5003459;28;20050;-82
2021/07/14 02:24:35;;;;;;;12.93;6.28;;;15.60;99.90;;;;;;4987253;28;20046;-82
2021/07/14 02:27:05;;;;;;;12.43;5.68;;;15.50;99.90;;;;;;5003649;28;20054;-82
2021/07/14 02:29:38;;;;;;;11.65;6.35;;;15.50;99.90;;;;;;5004182;28;20057;-82
2021/07/14 02:32:12;;;;;;;11.68;6.57;;;15.50;99.90;;;;;;4986487;28;20042;-83
2021/07/14 02:34:43;;;;;;;15.85;7.15;;;15.50;99.90;;;;;;4984702;28;20126;-83
2021/07/14 02:37:14;;;;;;;11.13;5.97;;;15.50;99.90;;;;;;4969751;28;20041;-82
2021/07/14 02:39:47;;;;;;;9.85;5.43;;;15.50;99.90;;;;;;4987067;28;20061;-81
2021/07/14 02:42:28;;;;;;;10.43;5.53;;;15.40;99.90;;;;;;5003392;28;20058;-81
2021/07/14 02:44:59;;;;;;;8.80;6.07;;;15.40;99.90;;;;;;5013216;28;20053;-82
2021/07/14 02:47:35;;;;;;;13.10;5.97;;;15.40;99.90;;;;;;5005069;28;20050;-83
2021/07/14 02:50:06;;;;;;;10.65;5.50;;;15.40;99.90;;;;;;5007516;28;20050;-83
2021/07/14 02:52:37;;;;;;;16.15;7.97;;;15.40;99.90;;;;;;5008373;28;20056;-83
2021/07/14 02:55:07;;;;;;;14.43;6.22;;;15.40;99.90;;;;;;5007921;28;20068;-82
2021/07/14 02:57:38;;;;;;;10.43;5.43;;;15.40;99.90;;;;;;4991374;28;20054;-83
2021/07/14 03:00:07;;;;;;;;;;;15.40;99.90;;;;;;4991618;28;20080;-82
2021/07/14 03:02:36;;;;;;;10.18;5.38;;;15.40;99.90;;;;;;5008874;28;19935;-82
2021/07/14 03:05:06;;;;;;;15.73;6.35;;;15.40;99.90;;;;;;5008392;28;20057;-82
2021/07/14 03:07:37;;;;;;;11.30;6.22;;;15.40;99.90;;;;;;4973979;28;20054;-83
2021/07/14 03:10:06;;;;;;;17.90;7.00;;;15.40;99.90;;;;;;4975123;28;20056;-83
2021/07/14 03:12:36;;;;;;;11.85;7.10;;;15.40;99.90;;;;;;5007899;28;20046;-82
2021/07/14 03:15:10;;;;;;;20.33;8.27;;;15.00;99.90;;;;;;4987391;28;20059;-82
2021/07/14 03:17:40;;;;;;;14.80;7.75;;;15.40;99.90;;;;;;4985783;28;20045;-82
2021/07/14 03:20:11;;;;;;;12.10;6.45;;;15.40;99.90;;;;;;4990858;28;20050;-82
2021/07/14 03:22:43;;;;;;;15.23;6.45;;;15.40;99.90;;;;;;4990544;28;20058;-82
2021/07/14 03:25:12;;;;;;;13.77;6.40;;;15.40;99.90;;;;;;4957381;28;20066;-83
2021/07/14 03:27:42;;;;;;;16.63;6.68;;;15.50;99.90;;;;;;4989884;28;20046;-82
2021/07/14 03:30:11;;;;;;;12.20;6.07;;;15.50;99.90;;;;;;5005900;28;20050;-84
2021/07/14 03:32:40;;;;;;;10.98;5.95;;;15.40;99.90;;;;;;5007457;28;20038;-82
2021/07/14 03:35:11;;;;;;;12.13;6.65;;;15.40;99.90;;;;;;4985337;28;20067;-81
2021/07/14 03:37:43;;;;;;;15.60;8.50;;;15.40;99.90;;;;;;4998937;28;20046;-82
2021/07/14 03:40:13;;;;;;;13.20;7.07;;;15.40;99.90;;;;;;4988830;28;20050;-81
2021/07/14 03:42:44;;;;;;;11.48;7.47;;;15.50;99.90;;;;;;4990028;28;20428;-82
2021/07/14 03:45:15;;;;;;;10.27;6.60;;;15.50;99.90;;;;;;4989255;28;20030;-81
2021/07/14 03:47:44;;;;;;;14.07;7.10;;;15.50;99.90;;;;;;4973048;28;20046;-84
2021/07/14 03:50:15;;;;;;;13.05;7.60;;;15.50;99.90;;;;;;5006119;28;20046;-82
2021/07/14 03:52:45;;;;;;;14.75;7.00;;;15.50;99.90;;;;;;5007490;28;20057;-82
2021/07/14 03:55:16;;;;;;;14.73;7.25;;;15.50;99.90;;;;;;4989723;28;20046;-81
2021/07/14 03:57:46;;;;;;;14.50;6.63;;;15.50;99.90;;;;;;4986939;28;20050;-81
2021/07/14 04:00:15;;;;;;;11.88;7.10;;;15.50;99.90;;;;;;4986876;28;20041;-82
2021/07/14 04:02:45;;;;;;;10.90;6.50;;;15.50;99.90;;;;;;4986543;28;20055;-82
2021/07/14 04:05:15;;;;;;;19.77;7.90;;;15.40;99.90;;;;;;4985609;28;20061;-81
2021/07/14 04:07:46;;;;;;;15.90;7.70;;;15.50;99.90;;;;;;4954133;28;20061;-81
2021/07/14 04:10:15;;;;;;;18.10;7.72;;;15.50;99.90;;;;;;4954315;28;20057;-83
2021/07/14 04:12:44;;;;;;;16.70;7.90;;;15.50;99.90;;;;;;4984340;28;20056;-82
2021/07/14 04:15:12;;;;;;;12.98;6.78;;;15.50;99.90;;;;;;4988509;28;20053;-82
2021/07/14 04:17:40;;;;;;;15.68;8.82;;;15.50;99.90;;;;;;5006743;28;20051;-82
2021/07/14 04:20:09;;;;;;;16.55;8.32;;;15.50;99.90;;;;;;4988742;28;20052;-82
2021/07/14 04:22:37;;;;;;;18.60;8.02;;;15.50;99.90;;;;;;5007805;28;20054;-81
2021/07/14 04:25:07;;;;;;;18.08;9.13;;;15.50;99.90;;;;;;4990570;28;20053;-80
2021/07/14 04:27:36;;;;;;;15.45;8.80;;;14.80;99.90;;;;;;5008167;28;20510;-82
2021/07/14 04:30:09;;;;;;;17.23;8.88;;;15.60;99.90;;;;;;4989798;28;20053;-83
2021/07/14 04:32:38;;;;;;;16.05;8.65;;;15.60;99.90;;;;;;4988864;28;20050;-82
2021/07/14 04:35:07;;;;;;;17.90;9.20;;;15.60;99.90;;;;;;4985872;28;20047;-82
2021/07/14 04:37:36;;;;;;;17.25;8.60;;;15.60;99.90;;;;;;4997750;28;20061;-82
2021/07/14 04:40:08;;;;;;;25.13;10.60;;;15.60;99.90;;;;;;4957461;28;20054;-82
2021/07/14 04:42:37;;;;;;;20.98;9.90;;;15.70;99.90;;;;;;5006885;28;20042;-82
2021/07/14 04:45:05;;;;;;;18.35;10.25;;;15.70;99.90;;;;;;4989283;28;20065;-83
2021/07/14 04:47:34;;;;;;;15.90;10.10;;;16.00;99.90;;;;;;4972310;28;20050;-82
2021/07/14 04:50:03;;;;;;;22.33;10.23;;;15.80;99.90;;;;;;5003163;28;20053;-84
2021/07/14 04:52:31;;;;;;;20.23;10.23;;;15.90;99.90;;;;;;4970223;28;20050;-83
2021/07/14 04:55:01;;;;;;;31.42;11.98;;;15.90;99.90;;;;;;4987060;28;20058;-84
2021/07/14 04:57:30;;;;;;;18.57;10.27;;;16.00;99.90;;;;;;5004706;28;20046;-84
2021/07/14 04:59:59;;;;;;;17.38;9.90;;;16.10;99.90;;;;;;4985891;28;20299;-81
2021/07/14 05:02:29;;;;;;;18.63;9.55;;;15.70;99.90;;;;;;5004063;28;20054;-83
2021/07/14 05:04:57;;;;;;;20.98;10.25;;;16.10;99.90;;;;;;4987776;28;20202;-82
2021/07/14 05:07:28;;;;;;;21.83;10.32;;;16.20;99.90;;;;;;4971428;28;20065;-82
2021/07/14 05:09:57;;;;;;;18.67;10.15;;;16.20;99.90;;;;;;5002895;28;20042;-80
2021/07/14 05:12:27;;;;;;;21.67;10.85;;;16.20;99.90;;;;;;4971621;28;20046;-81
2021/07/14 05:14:57;;;;;;;20.83;10.63;;;16.30;99.90;;;;;;4986766;28;20050;-81
2021/07/14 05:17:25;;;;;;;18.77;10.43;;;16.30;99.90;;;;;;4967887;28;20050;-83
2021/07/14 05:19:54;;;;;;;19.67;10.00;;;16.30;99.90;;;;;;4988399;28;20050;-83
2021/07/14 05:22:24;;;;;;;21.33;10.27;;;16.30;99.90;;;;;;5002724;28;20054;-82
2021/07/14 05:24:53;;;;;;;20.33;10.95;;;16.40;99.90;;;;;;4987193;28;20051;-80
2021/07/14 05:27:23;;;;;;;22.42;11.60;;;16.40;99.90;;;;;;5006106;28;20050;-84
2021/07/14 05:29:53;;;;;;;20.50;10.52;;;16.40;99.90;;;;;;4986756;28;20042;-82
2021/07/14 05:32:21;;;;;;;18.63;9.70;;;16.80;99.90;;;;;;5003548;28;20054;-82
2021/07/14 05:34:49;;;;;;;19.65;10.30;;;16.50;99.90;;;;;;4986300;28;20053;-81
2021/07/14 05:37:17;;;;;;;19.33;9.60;;;16.50;99.90;;;;;;5004788;28;20126;-83
2021/07/14 05:39:45;;;;;;;19.00;10.48;;;16.60;99.90;;;;;;4987998;28;20373;-83
2021/07/14 05:42:15;;;;;;;23.85;10.88;;;17.10;99.90;;;;;;4971050;28;20050;-83
2021/07/14 05:44:50;;;;;;;23.92;9.95;;;16.60;99.90;;;;;;5003377;28;20044;-83
2021/07/14 05:47:19;;;;;;;16.88;9.75;;;16.70;99.90;;;;;;5006683;28;20053;-83
2021/07/14 05:49:50;;;;;;;23.10;10.95;;;16.70;99.90;;;;;;4984601;28;20053;-83
2021/07/14 05:52:19;;;;;;;20.85;10.82;;;16.80;99.90;;;;;;5002640;28;20050;-85
2021/07/14 05:54:53;;;;;;;18.52;10.40;;;16.80;99.90;;;;;;4986250;28;20044;-82
2021/07/14 05:57:22;;;;;;;21.08;10.75;;;16.80;99.90;;;;;;4967355;28;20057;-81
2021/07/14 05:59:51;;;;;;;21.13;9.90;;;16.90;99.90;;;;;;4982024;28;20058;-83
2021/07/14 06:02:20;;;;;;;19.20;9.43;;;16.90;99.90;;;;;;4968407;28;20050;-83
2021/07/14 06:04:49;;;;;;;20.00;9.10;;;16.90;99.90;;;;;;4985904;28;20050;-83
2021/07/14 06:07:19;;;;;;;;;;;17.00;99.90;;;;;;5004121;28;20049;-83
2021/07/14 06:09:47;;;;;;;17.52;8.18;;;17.00;99.90;;;;;;4985706;28;19921;-85
2021/07/14 06:12:24;;;;;;;16.90;8.55;;;17.00;99.90;;;;;;5005130;28;20051;-84
2021/07/14 06:14:59;;;;;;;20.00;8.27;;;17.10;99.90;;;;;;4959783;28;20055;-88
2021/07/14 06:17:30;;;;;;;16.23;8.20;;;17.00;99.90;;;;;;4971022;28;20046;-90
2021/07/14 06:20:01;;;;;;;17.23;8.10;;;17.10;99.90;;;;;;4956680;28;20234;-88
2021/07/14 06:22:32;;;;;;;16.33;8.18;;;17.20;99.90;;;;;;4950361;29;20050;-88
2021/07/14 06:25:08;;;;;;;18.50;8.45;;;17.20;99.90;;;;;;4972940;28;20054;-87
2021/07/14 06:27:43;;;;;;;17.20;7.57;;;17.20;99.90;;;;;;4963513;28;20050;-87
2021/07/14 06:30:18;;;;;;;16.45;7.70;;;17.60;99.90;;;;;;4969409;28;20062;-86
2021/07/14 06:32:52;;;;;;;20.15;8.80;;;17.30;99.90;;;;;;4975467;28;20043;-88
2021/07/14 06:35:24;;;;;;;15.55;7.53;;;17.30;99.90;;;;;;4978779;28;20050;-91
2021/07/14 06:37:59;;;;;;;18.20;7.20;;;17.40;99.90;;;;;;4981976;28;20035;-86
2021/07/14 06:40:37;;;;;;;19.08;7.05;;;17.40;99.90;;;;;;4980709;28;20047;-86
2021/07/14 06:43:15;;;;;;;16.40;7.85;;;17.30;99.90;;;;;;4963398;28;20411;-87
2021/07/14 06:45:49;;;;;;;18.35;8.20;;;17.50;99.90;;;;;;4970868;28;20054;-89
2021/07/14 06:48:20;;;;;;;14.02;6.75;;;17.60;99.90;;;;;;4970060;28;20054;-87
2021/07/14 06:50:49;;;;;;;18.55;8.70;;;17.60;99.90;;;;;;4971237;28;20039;-87
2021/07/14 06:53:21;;;;;;;19.83;8.77;;;17.70;99.90;;;;;;4971784;28;20051;-87
2021/07/14 06:55:49;;;;;;;16.88;8.90;;;17.70;99.90;;;;;;4969487;28;20506;-87
2021/07/14 06:58:28;;;;;;;22.05;9.05;;;17.80;99.90;;;;;;4972938;28;20050;-87
2021/07/14 07:00:59;;;;;;;20.08;9.32;;;17.90;99.90;;;;;;4943145;28;20486;-87
2021/07/14 07:03:29;;;;;;;23.13;10.55;;;17.90;99.90;;;;;;4967714;28;20763;-86
2021/07/14 07:05:57;;;;;;;19.75;10.48;;;17.90;99.90;;;;;;4966872;28;20043;-89
2021/07/14 07:08:34;;;;;;;18.17;9.25;;;18.00;99.90;;;;;;4972738;28;20046;-90
2021/07/14 07:11:14;;;;;;;19.70;10.60;;;18.00;99.90;;;;;;4937875;28;20043;-90
2021/07/14 07:13:59;;;;;;;17.40;8.23;;;18.00;99.90;;;;;;4942338;29;20040;-90
2021/07/14 07:16:38;;;;;;;17.45;9.63;;;18.10;99.90;;;;;;4939186;29;20056;-89
2021/07/14 07:19:16;;;;;;;22.23;9.18;;;18.20;99.90;;;;;;4929964;29;20047;-86
2021/07/14 07:21:50;;;;;;;17.33;8.15;;;18.20;99.90;;;;;;4941285;29;20311;-91
2021/07/14 07:24:37;;;;;;;21.15;9.00;;;18.20;99.90;;;;;;4941439;29;20523;-90
2021/07/14 07:27:19;;;;;;;20.88;10.02;;;18.10;99.90;;;;;;4935103;29;20052;-91
2021/07/14 07:30:13;;;;;;;18.63;9.00;;;18.20;99.90;;;;;;4949064;29;20056;-91
2021/07/14 07:33:25;;;;;;;;;;;;;;;;;;;;;
2021/07/14 07:36:17;;;;;;;14.15;7.43;;;18.30;99.90;;;;;;4929872;29;20052;-91
2021/07/14 07:38:54;;;;;;;18.30;8.40;;;18.50;99.90;;;;;;4943637;29;20058;-91
2021/07/14 07:41:28;;;;;;;22.85;8.38;;;18.60;99.90;;;;;;4927668;29;20047;-92
2021/07/14 07:44:11;;;;;;;17.35;8.00;;;18.60;99.90;;;;;;4928872;29;20054;-90
2021/07/14 07:46:59;;;;;;;17.90;9.18;;;18.60;99.90;;;;;;4942406;29;20043;-89
2021/07/14 07:49:52;;;;;;;22.95;10.38;;;18.60;99.90;;;;;;4944251;29;20058;-89
2021/07/14 07:52:46;;;;;;;21.00;10.00;;;19.10;99.90;;;;;;4936271;29;20051;-91
2021/07/14 07:55:32;;;;;;;19.30;9.82;;;18.50;99.90;;;;;;4929453;29;20059;-92
2021/07/14 07:58:06;;;;;;;20.63;10.43;;;18.50;99.90;;;;;;4912801;29;20062;-88
2021/07/14 08:00:38;;;;;;;;;;;18.50;99.90;;;;;;4931594;29;20058;-89
2021/07/14 08:03:09;;;;;;;16.63;9.35;;;18.50;99.90;;;;;;4936075;29;19922;-89
2021/07/14 08:05:51;;;;;;;18.05;9.10;;;17.50;99.90;;;;;;4930139;29;20044;-91
2021/07/14 08:08:23;;;;;;;19.02;9.73;;;18.60;99.90;;;;;;4935627;29;20058;-90
2021/07/14 08:10:56;;;;;;;17.95;9.35;;;18.60;99.90;;;;;;4944131;29;20044;-90
2021/07/14 08:13:27;;;;;;;17.98;7.95;;;18.70;99.90;;;;;;4940475;29;20071;-91
2021/07/14 08:15:57;;;;;;;21.23;8.57;;;18.70;99.90;;;;;;4968760;28;20039;-90
2021/07/14 08:18:31;;;;;;;21.90;9.38;;;18.70;99.90;;;;;;4946217;29;20055;-91
2021/07/14 08:21:04;;;;;;;20.95;9.57;;;19.70;99.90;;;;;;4939439;29;20044;-89
2021/07/14 08:24:01;;;;;;;20.88;8.80;;;18.70;99.90;;;;;;4945239;29;20061;-90
2021/07/14 08:26:33;;;;;;;17.15;8.98;;;18.70;99.90;;;;;;4922641;29;20431;-90
2021/07/14 08:29:11;;;;;;;16.70;9.48;;;18.70;99.90;;;;;;4957789;28;20052;-89
2021/07/14 08:31:51;;;;;;;17.23;9.10;;;18.70;99.90;;;;;;4945456;29;20533;-90
2021/07/14 08:34:48;;;;;;;18.45;9.60;;;18.60;99.90;;;;;;4946283;29;20047;-93
2021/07/14 08:37:38;;;;;;;22.35;9.82;;;18.80;99.90;;;;;;4967636;28;20055;-89
2021/07/14 08:40:15;;;;;;;18.45;8.93;;;18.80;99.90;;;;;;4950595;29;20062;-90
2021/07/14 08:42:49;;;;;;;15.30;8.60;;;18.80;99.90;;;;;;4933430;29;20043;-90
2021/07/14 08:45:33;;;;;;;25.55;9.20;;;18.80;99.90;;;;;;4941281;29;20059;-91
2021/07/14 08:48:20;;;;;;;20.77;10.00;;;18.80;99.90;;;;;;4925801;29;20055;-90
2021/07/14 08:51:17;;;;;;;18.60;8.98;;;18.90;99.90;;;;;;4926893;29;20059;-89
2021/07/14 08:53:50;;;;;;;21.08;9.30;;;18.90;99.90;;;;;;4961522;28;20047;-89
2021/07/14 08:56:33;;;;;;;23.00;9.25;;;18.80;99.90;;;;;;4932521;29;20058;-90
2021/07/14 08:59:06;;;;;;;28.52;9.90;;;18.90;99.90;;;;;;4942578;29;20048;-92
2021/07/14 09:01:35;;;;;;;19.50;9.60;;;18.90;99.90;;;;;;4946122;29;20063;-90
2021/07/14 09:04:11;;;;;;;23.23;9.77;;;18.80;99.90;;;;;;4949011;29;20067;-89
2021/07/14 09:06:51;;;;;;;15.52;8.20;;;18.90;99.90;;;;;;4924534;29;20044;-89
2021/07/14 09:09:28;;;;;;;18.10;8.93;;;18.50;99.90;;;;;;4947071;29;20056;-90
2021/07/14 09:12:03;;;;;;;11.82;7.07;;;18.60;99.90;;;;;;4947457;29;20047;-90
2021/07/14 09:14:41;;;;;;;18.40;8.68;;;18.60;99.90;;;;;;4924611;29;20602;-89
2021/07/14 09:17:22;;;;;;;16.88;7.97;;;18.70;99.90;;;;;;4932788;29;20074;-91
2021/07/14 09:20:40;;;;;;;15.50;8.70;;;18.70;99.90;;;;;;4952019;28;20050;-89
2021/07/14 09:23:32;;;;;;;17.50;7.80;;;18.80;99.90;;;;;;4931671;29;20880;-90
2021/07/14 09:26:12;;;;;;;24.40;8.73;;;18.90;99.90;;;;;;4922230;29;20051;-90
2021/07/14 09:28:43;;;;;;;18.40;9.05;;;18.90;99.90;;;;;;4989899;23;20059;-90
2021/07/14 09:31:24;;;;;;;14.18;7.93;;;18.80;99.90;;;;;;5003638;28;20056;-90
2021/07/14 09:33:54;;;;;;;18.60;10.18;;;18.90;99.90;;;;;;5011152;28;20053;-89
2021/07/14 09:36:33;;;;;;;17.35;9.20;;;19.00;99.90;;;;;;5027766;28;20045;-91
2021/07/14 09:39:10;;;;;;;24.67;9.77;;;19.10;99.90;;;;;;5006383;28;20049;-89
2021/07/14 09:41:47;;;;;;;20.33;8.60;;;19.20;99.90;;;;;;5009373;28;20053;-89
2021/07/14 09:44:29;;;;;;;15.77;8.40;;;19.30;99.90;;;;;;5034120;28;20306;-89
2021/07/14 09:47:15;;;;;;;17.63;8.57;;;19.30;99.90;;;;;;5027532;28;20045;-89
2021/07/14 09:49:50;;;;;;;25.83;11.13;;;19.40;99.90;;;;;;5006263;28;20060;-89
2021/07/14 09:52:31;;;;;;;20.58;7.68;;;19.50;99.90;;;;;;5025394;28;20069;-89
2021/07/14 09:55:09;;;;;;;17.88;8.40;;;19.50;99.90;;;;;;5036317;28;20046;-89
2021/07/14 09:57:38;;;;;;;17.92;8.48;;;19.50;99.90;;;;;;5029393;28;20052;-89
2021/07/14 10:00:19;;;;;;;16.45;8.38;;;19.40;99.90;;;;;;5026321;28;20049;-89
2021/07/14 10:02:58;;;;;;;23.48;9.18;;;19.40;99.90;;;;;;5030177;28;20049;-90
2021/07/14 10:05:44;;;;;;;16.30;7.53;;;19.40;99.90;;;;;;4988888;28;20276;-91
2021/07/14 10:08:31;;;;;;;17.70;8.57;;;19.50;99.90;;;;;;5016869;28;20046;-90
2021/07/14 10:11:24;;;;;;;13.80;7.43;;;19.60;99.90;;;;;;4981069;28;20054;-90
2021/07/14 10:14:13;;;;;;;18.60;9.00;;;19.60;99.90;;;;;;5023534;28;20045;-89
2021/07/14 10:16:56;;;;;;;17.35;7.60;;;19.70;99.90;;;;;;5035416;28;20062;-90
2021/07/14 10:19:47;;;;;;;16.70;9.57;;;19.80;99.90;;;;;;5026382;28;20056;-90
2021/07/14 10:22:42;;;;;;;20.65;7.93;;;19.80;99.90;;;;;;5007808;28;20053;-90
2021/07/14 10:25:14;;;;;;;13.90;8.70;;;20.00;99.90;;;;;;5043781;28;20046;-84
2021/07/14 10:27:59;;;;;;;13.43;7.18;;;20.00;99.90;;;;;;5029126;28;20213;-84
2021/07/14 10:30:49;;;;;;;15.30;6.97;;;20.20;99.90;;;;;;5044273;28;20723;-84
2021/07/14 10:33:21;;;;;;;15.85;8.18;;;20.20;99.90;;;;;;5022331;28;20307;-83
2021/07/14 10:35:51;;;;;;;16.10;7.70;;;20.20;99.90;;;;;;5008683;28;20053;-84
2021/07/14 10:38:26;;;;;;;18.00;6.22;;;20.30;99.90;;;;;;4999716;28;20053;-83
2021/07/14 10:41:09;;;;;;;14.75;7.55;;;20.30;99.90;;;;;;5010081;28;20048;-85
2021/07/14 10:44:16;;;;;;;12.63;6.55;;;20.40;99.90;;;;;;5027324;28;20202;-84
2021/07/14 10:46:45;;;;;;;16.95;7.53;;;20.50;99.90;;;;;;5008920;28;20056;-84
2021/07/14 10:49:16;;;;;;;32.78;8.55;;;20.60;99.90;;;;;;5007085;28;20694;-85
2021/07/14 10:51:45;;;;;;;;;;;20.60;99.90;;;;;;5043804;28;20057;-85
2021/07/14 10:54:23;;;;;;;19.90;6.90;;;19.70;99.90;;;;;;5026691;28;19931;-85
2021/07/14 10:56:54;;;;;;;15.57;6.75;;;20.60;99.90;;;;;;5012543;28;20050;-85
2021/07/14 10:59:26;;;;;;;13.02;6.28;;;20.80;99.90;;;;;;5026016;28;20051;-84
2021/07/14 11:01:55;;;;;;;;;;;20.80;99.90;;;;;;5028907;28;20061;-85
2021/07/14 11:04:36;;;;;;;11.05;5.65;;;20.90;99.90;;;;;;5028695;28;20336;-85
2021/07/14 11:07:07;;;;;;;14.18;6.53;;;20.90;99.90;;;;;;5046300;28;20041;-84
2021/07/14 11:09:45;;;;;;;13.93;6.73;;;20.40;99.90;;;;;;5027266;28;20037;-85
2021/07/14 11:12:28;;;;;;;14.63;6.38;;;21.20;99.90;;;;;;5045133;28;20057;-84
2021/07/14 11:14:58;;;;;;;15.05;6.00;;;21.40;99.90;;;;;;4989692;28;20053;-84
2021/07/14 11:17:34;;;;;;;15.02;6.18;;;21.60;99.90;;;;;;5007530;28;20045;-85
2021/07/14 11:20:13;;;;;;;15.02;6.57;;;21.60;99.90;;;;;;4988971;28;20050;-85
2021/07/14 11:22:49;;;;;;;12.88;5.80;;;21.70;99.90;;;;;;5023690;28;20053;-85
2021/07/14 11:25:20;;;;;;;18.15;4.97;;;21.70;99.90;;;;;;5005697;28;20060;-84
2021/07/14 11:28:08;;;;;;;8.90;4.78;;;21.20;99.90;;;;;;5004194;28;20050;-85
2021/07/14 11:30:40;;;;;;;12.07;5.15;;;21.90;99.90;;;;;;5005466;28;20058;-83
2021/07/14 11:33:21;;;;;;;11.73;5.30;;;22.10;99.90;;;;;;5006506;28;20056;-84
2021/07/14 11:36:07;;;;;;;9.00;4.65;;;22.30;99.90;;;;;;5002835;28;20046;-84
2021/07/14 11:38:54;;;;;;;11.45;4.50;;;22.50;99.90;;;;;;4999758;28;20051;-84
2021/07/14 11:41:35;;;;;;;8.75;4.70;;;22.50;99.90;;;;;;4990475;28;20042;-84
2021/07/14 11:44:04;;;;;;;7.10;4.35;;;22.60;99.90;;;;;;5006664;28;20042;-84
2021/07/14 11:46:49;;;;;;;12.65;4.38;;;22.60;99.90;;;;;;5006903;28;20056;-86
2021/07/14 11:49:20;;;;;;;11.50;4.43;;;21.50;99.90;;;;;;4974245;28;20054;-84
2021/07/14 11:51:53;;;;;;;12.18;3.97;;;22.70;99.90;;;;;;5003926;28;20054;-84
2021/07/14 11:54:28;;;;;;;7.22;3.75;;;21.60;99.90;;;;;;4986594;28;20416;-86
2021/07/14 11:57:02;;;;;;;22.35;6.22;;;22.80;99.90;;;;;;5005806;28;20048;-84
2021/07/14 11:59:32;;;;;;;12.20;3.65;;;22.90;99.90;;;;;;5005252;28;20044;-86
2021/07/14 12:02:04;;;;;;;12.95;3.80;;;23.10;99.90;;;;;;5002909;28;20054;-82
2021/07/14 12:04:35;;;;;;;16.10;4.85;;;23.20;99.90;;;;;;5017879;28;20070;-81
2021/07/14 12:07:10;;;;;;;13.00;4.00;;;23.30;99.90;;;;;;5002086;28;20050;-80
2021/07/14 12:09:44;;;;;;;9.88;4.30;;;23.30;99.90;;;;;;5000202;28;20050;-80
2021/07/14 12:12:19;;;;;;;10.18;4.63;;;23.30;99.90;;;;;;5002778;28;20491;-82
2021/07/14 12:14:51;;;;;;;14.45;4.65;;;23.90;99.90;;;;;;5002538;28;20062;-79
2021/07/14 12:17:21;;;;;;;12.05;3.85;;;23.40;99.90;;;;;;4982510;28;20042;-81
2021/07/14 12:19:54;;;;;;;;;;;23.40;99.90;;;;;;5002411;28;20046;-79
2021/07/14 12:22:33;;;;;;;8.15;3.72;;;23.30;99.90;;;;;;5000738;28;19937;-82
2021/07/14 12:25:14;;;;;;;8.00;3.80;;;23.30;99.90;;;;;;4991859;28;20055;-81
2021/07/14 12:27:43;;;;;;;7.78;3.45;;;23.30;99.90;;;;;;4990800;28;20044;-80
2021/07/14 12:30:21;;;;;;;9.85;3.80;;;23.40;99.90;;;;;;5000437;28;20046;-81
2021/07/14 12:32:54;;;;;;;11.85;3.45;;;23.40;99.90;;;;;;4995383;28;20043;-80
2021/07/14 12:35:29;;;;;;;10.40;4.03;;;23.50;99.90;;;;;;5003148;28;20046;-85
2021/07/14 12:38:06;;;;;;;5.13;3.20;;;23.60;99.90;;;;;;4990811;28;20054;-84
2021/07/14 12:40:49;;;;;;;13.70;4.95;;;23.60;99.90;;;;;;4948215;29;20058;-83
2021/07/14 12:43:37;;;;;;;9.88;3.80;;;23.60;99.90;;;;;;4975081;28;20038;-83
2021/07/14 12:46:41;;;;;;;6.93;3.13;;;23.60;99.90;;;;;;4973764;28;20070;-84
2021/07/14 12:49:16;;;;;;;12.93;4.22;;;23.60;99.90;;;;;;4978003;28;20054;-83
2021/07/14 12:52:04;;;;;;;8.55;3.92;;;23.80;99.90;;;;;;4966372;28;20095;-83
2021/07/14 12:54:35;;;;;;;6.07;3.55;;;23.90;99.90;;;;;;4965885;28;20065;-83
2021/07/14 12:57:19;;;;;;;9.73;4.17;;;24.00;99.90;;;;;;4977558;28;20051;-83
2021/07/14 13:00:08;;;;;;;10.30;3.83;;;24.10;99.90;;;;;;4974464;28;20054;-88
2021/07/14 13:02:58;;;;;;;9.63;3.67;;;24.30;99.90;;;;;;4985365;28;20047;-84
2021/07/14 13:05:28;;;;;;;7.45;3.63;;;24.50;99.90;;;;;;4986200;28;20055;-83
2021/07/14 13:08:09;;;;;;;10.65;3.47;;;24.80;99.70;;;;;;4968869;28;20048;-84
2021/07/14 13:10:39;;;;;;;;;;;25.00;99.70;;;;;;4986150;28;20057;-84
2021/07/14 13:13:12;;;;;;;7.70;3.42;;;25.20;98.90;;;;;;4982706;28;19933;-84
2021/07/14 13:15:42;;;;;;;10.88;3.20;;;25.30;99.00;;;;;;4978516;28;20073;-84
2021/07/14 13:18:15;;;;;;;8.00;3.30;;;25.50;99.10;;;;;;4969181;28;20062;-84
2021/07/14 13:20:51;;;;;;;9.57;3.53;;;25.60;98.30;;;;;;4966838;28;20050;-84
2021/07/14 13:23:22;;;;;;;6.80;2.65;;;25.60;98.30;;;;;;4969061;28;20080;-84
2021/07/14 13:25:53;;;;;;;7.35;3.63;;;25.80;98.00;;;;;;4999976;28;20058;-84
2021/07/14 13:28:28;;;;;;;7.40;3.38;;;26.00;97.80;;;;;;4984948;28;20804;-84